sensor_id;sensor_type;location;lat;lon;timestamp;P1;durP1;ratioP1;P2;durP2;ratioP2
15443;SDS011;7822;48.146;11.576;2023-04-03T00:00:56;2.57;;;2.37;;
15443;SDS011;7822;48.146;11.576;2023-04-03T00:03:23;2.60;;;2.40;;
15443;SDS011;7822;48.146;11.576;2023-04-03T00:05:52;2.63;;;2.43;;
15443;SDS011;7822;48.146;11.576;2023-04-03T00:08:20;2.20;;;2.10;;
15443;SDS011;7822;48.146;11.576;2023-04-03T00:10:48;2.70;;;2.47;;
15443;SDS011;7822;48.146;11.576;2023-04-03T00:13:16;2.70;;;2.50;;
15443;SDS011;7822;48.146;11.576;2023-04-03T00:15:44;2.50;;;2.30;;
15443;SDS011;7822;48.146;11.576;2023-04-03T00:18:12;2.43;;;2.20;;
15443;SDS011;7822;48.146;11.576;2023-04-03T00:20:40;3.17;;;2.37;;
15443;SDS011;7822;48.146;11.576;2023-04-03T00:23:09;2.50;;;2.30;;
15443;SDS011;7822;48.146;11.576;2023-04-03T00:25:36;2.40;;;2.20;;
15443;SDS011;7822;48.146;11.576;2023-04-03T00:28:04;2.40;;;2.20;;
15443;SDS011;7822;48.146;11.576;2023-04-03T00:30:32;3.50;;;2.50;;
15443;SDS011;7822;48.146;11.576;2023-04-03T00:33:00;2.30;;;2.20;;
15443;SDS011;7822;48.146;11.576;2023-04-03T00:35:28;2.40;;;2.30;;
15443;SDS011;7822;48.146;11.576;2023-04-03T00:37:56;2.67;;;2.47;;
15443;SDS011;7822;48.146;11.576;2023-04-03T00:40:25;2.20;;;2.10;;
15443;SDS011;7822;48.146;11.576;2023-04-03T00:42:55;2.80;;;2.57;;
15443;SDS011;7822;48.146;11.576;2023-04-03T00:45:29;2.33;;;2.23;;
15443;SDS011;7822;48.146;11.576;2023-04-03T00:48:01;2.13;;;2.03;;
15443;SDS011;7822;48.146;11.576;2023-04-03T00:50:32;2.47;;;2.27;;
15443;SDS011;7822;48.146;11.576;2023-04-03T00:53:03;1.97;;;1.87;;
15443;SDS011;7822;48.146;11.576;2023-04-03T00:55:34;2.30;;;2.10;;
15443;SDS011;7822;48.146;11.576;2023-04-03T00:58:03;2.37;;;2.17;;
15443;SDS011;7822;48.146;11.576;2023-04-03T01:00:33;2.37;;;2.20;;
15443;SDS011;7822;48.146;11.576;2023-04-03T01:03:03;2.37;;;2.17;;
15443;SDS011;7822;48.146;11.576;2023-04-03T01:05:31;2.00;;;1.90;;
15443;SDS011;7822;48.146;11.576;2023-04-03T01:07:59;2.30;;;2.10;;
15443;SDS011;7822;48.146;11.576;2023-04-03T01:10:28;2.17;;;2.07;;
15443;SDS011;7822;48.146;11.576;2023-04-03T01:12:57;2.03;;;1.93;;
15443;SDS011;7822;48.146;11.576;2023-04-03T01:15:27;2.10;;;2.00;;
15443;SDS011;7822;48.146;11.576;2023-04-03T01:17:56;2.37;;;2.10;;
15443;SDS011;7822;48.146;11.576;2023-04-03T01:20:39;2.17;;;1.97;;
15443;SDS011;7822;48.146;11.576;2023-04-03T01:23:45;1.90;;;1.80;;
15443;SDS011;7822;48.146;11.576;2023-04-03T01:26:19;2.03;;;1.90;;
15443;SDS011;7822;48.146;11.576;2023-04-03T01:28:48;2.20;;;2.10;;
15443;SDS011;7822;48.146;11.576;2023-04-03T01:31:18;2.00;;;1.90;;
15443;SDS011;7822;48.146;11.576;2023-04-03T01:33:50;2.40;;;2.20;;
15443;SDS011;7822;48.146;11.576;2023-04-03T01:36:19;2.40;;;2.10;;
15443;SDS011;7822;48.146;11.576;2023-04-03T01:38:48;2.10;;;2.00;;
15443;SDS011;7822;48.146;11.576;2023-04-03T01:41:16;2.80;;;2.27;;
15443;SDS011;7822;48.146;11.576;2023-04-03T01:43:44;2.00;;;1.90;;
15443;SDS011;7822;48.146;11.576;2023-04-03T01:46:12;2.27;;;2.07;;
15443;SDS011;7822;48.146;11.576;2023-04-03T01:48:39;2.10;;;2.00;;
15443;SDS011;7822;48.146;11.576;2023-04-03T01:51:09;1.90;;;1.80;;
15443;SDS011;7822;48.146;11.576;2023-04-03T01:53:36;2.30;;;1.90;;
15443;SDS011;7822;48.146;11.576;2023-04-03T01:56:04;2.17;;;1.97;;
15443;SDS011;7822;48.146;11.576;2023-04-03T01:58:32;2.13;;;2.00;;
15443;SDS011;7822;48.146;11.576;2023-04-03T02:01:00;2.23;;;2.00;;
15443;SDS011;7822;48.146;11.576;2023-04-03T02:03:28;2.00;;;1.90;;
15443;SDS011;7822;48.146;11.576;2023-04-03T02:05:57;2.87;;;2.10;;
15443;SDS011;7822;48.146;11.576;2023-04-03T02:08:26;2.00;;;1.90;;
15443;SDS011;7822;48.146;11.576;2023-04-03T02:10:53;2.20;;;2.00;;
15443;SDS011;7822;48.146;11.576;2023-04-03T02:13:21;2.17;;;1.97;;
15443;SDS011;7822;48.146;11.576;2023-04-03T02:15:48;2.30;;;2.10;;
15443;SDS011;7822;48.146;11.576;2023-04-03T02:18:16;2.40;;;2.20;;
15443;SDS011;7822;48.146;11.576;2023-04-03T02:20:46;2.50;;;2.30;;
15443;SDS011;7822;48.146;11.576;2023-04-03T02:23:13;2.10;;;2.00;;
15443;SDS011;7822;48.146;11.576;2023-04-03T02:25:42;2.20;;;2.10;;
15443;SDS011;7822;48.146;11.576;2023-04-03T02:28:10;2.10;;;2.00;;
15443;SDS011;7822;48.146;11.576;2023-04-03T02:30:38;2.20;;;2.00;;
15443;SDS011;7822;48.146;11.576;2023-04-03T02:33:05;2.17;;;2.07;;
15443;SDS011;7822;48.146;11.576;2023-04-03T02:35:33;1.97;;;1.80;;
15443;SDS011;7822;48.146;11.576;2023-04-03T02:38:01;1.80;;;1.70;;
15443;SDS011;7822;48.146;11.576;2023-04-03T02:40:28;2.00;;;1.90;;
15443;SDS011;7822;48.146;11.576;2023-04-03T02:42:57;1.90;;;1.80;;
15443;SDS011;7822;48.146;11.576;2023-04-03T02:45:25;2.00;;;1.90;;
15443;SDS011;7822;48.146;11.576;2023-04-03T02:47:53;1.77;;;1.67;;
15443;SDS011;7822;48.146;11.576;2023-04-03T02:50:20;1.70;;;1.60;;
15443;SDS011;7822;48.146;11.576;2023-04-03T02:52:48;2.30;;;2.10;;
15443;SDS011;7822;48.146;11.576;2023-04-03T02:55:16;2.13;;;1.93;;
15443;SDS011;7822;48.146;11.576;2023-04-03T02:57:43;2.00;;;1.90;;
15443;SDS011;7822;48.146;11.576;2023-04-03T03:00:13;1.97;;;1.87;;
15443;SDS011;7822;48.146;11.576;2023-04-03T03:02:41;1.90;;;1.80;;
15443;SDS011;7822;48.146;11.576;2023-04-03T03:05:09;1.80;;;1.70;;
15443;SDS011;7822;48.146;11.576;2023-04-03T03:07:36;2.17;;;1.97;;
15443;SDS011;7822;48.146;11.576;2023-04-03T03:10:04;1.90;;;1.60;;
15443;SDS011;7822;48.146;11.576;2023-04-03T03:12:32;1.87;;;1.77;;
15443;SDS011;7822;48.146;11.576;2023-04-03T03:15:00;1.90;;;1.80;;
15443;SDS011;7822;48.146;11.576;2023-04-03T03:17:29;1.90;;;1.80;;
15443;SDS011;7822;48.146;11.576;2023-04-03T03:19:57;2.10;;;1.90;;
15443;SDS011;7822;48.146;11.576;2023-04-03T03:22:25;1.83;;;1.73;;
15443;SDS011;7822;48.146;11.576;2023-04-03T03:24:53;2.00;;;1.90;;
15443;SDS011;7822;48.146;11.576;2023-04-03T03:27:21;2.00;;;1.90;;
15443;SDS011;7822;48.146;11.576;2023-04-03T03:29:48;2.00;;;1.90;;
15443;SDS011;7822;48.146;11.576;2023-04-03T03:32:16;2.23;;;2.03;;
15443;SDS011;7822;48.146;11.576;2023-04-03T03:34:45;2.00;;;1.90;;
15443;SDS011;7822;48.146;11.576;2023-04-03T03:37:12;1.90;;;1.80;;
15443;SDS011;7822;48.146;11.576;2023-04-03T03:39:40;1.60;;;1.50;;
15443;SDS011;7822;48.146;11.576;2023-04-03T03:42:08;1.60;;;1.50;;
15443;SDS011;7822;48.146;11.576;2023-04-03T03:44:35;2.00;;;1.90;;
15443;SDS011;7822;48.146;11.576;2023-04-03T03:47:03;1.67;;;1.57;;
15443;SDS011;7822;48.146;11.576;2023-04-03T03:49:32;1.70;;;1.60;;
15443;SDS011;7822;48.146;11.576;2023-04-03T03:52:01;1.70;;;1.60;;
15443;SDS011;7822;48.146;11.576;2023-04-03T03:54:28;2.13;;;1.97;;
15443;SDS011;7822;48.146;11.576;2023-04-03T03:56:56;1.80;;;1.70;;
15443;SDS011;7822;48.146;11.576;2023-04-03T03:59:24;1.97;;;1.87;;
15443;SDS011;7822;48.146;11.576;2023-04-03T04:01:52;2.07;;;1.97;;
15443;SDS011;7822;48.146;11.576;2023-04-03T04:04:20;2.00;;;1.80;;
15443;SDS011;7822;48.146;11.576;2023-04-03T04:06:48;1.70;;;1.60;;
15443;SDS011;7822;48.146;11.576;2023-04-03T04:09:18;1.80;;;1.70;;
15443;SDS011;7822;48.146;11.576;2023-04-03T04:11:45;2.07;;;1.90;;
15443;SDS011;7822;48.146;11.576;2023-04-03T04:14:13;1.80;;;1.70;;
15443;SDS011;7822;48.146;11.576;2023-04-03T04:16:41;1.83;;;1.73;;
15443;SDS011;7822;48.146;11.576;2023-04-03T04:19:09;1.80;;;1.70;;
15443;SDS011;7822;48.146;11.576;2023-04-03T04:21:36;1.67;;;1.57;;
15443;SDS011;7822;48.146;11.576;2023-04-03T04:24:04;1.70;;;1.60;;
15443;SDS011;7822;48.146;11.576;2023-04-03T04:26:34;1.70;;;1.60;;
15443;SDS011;7822;48.146;11.576;2023-04-03T04:29:01;1.80;;;1.70;;
15443;SDS011;7822;48.146;11.576;2023-04-03T04:31:29;1.50;;;1.40;;
15443;SDS011;7822;48.146;11.576;2023-04-03T04:33:57;1.57;;;1.47;;
15443;SDS011;7822;48.146;11.576;2023-04-03T04:36:24;2.20;;;1.57;;
15443;SDS011;7822;48.146;11.576;2023-04-03T04:38:52;1.90;;;1.80;;
15443;SDS011;7822;48.146;11.576;2023-04-03T04:41:20;1.70;;;1.60;;
15443;SDS011;7822;48.146;11.576;2023-04-03T04:43:50;1.77;;;1.67;;
15443;SDS011;7822;48.146;11.576;2023-04-03T04:46:18;1.77;;;1.67;;
15443;SDS011;7822;48.146;11.576;2023-04-03T04:48:46;1.40;;;1.30;;
15443;SDS011;7822;48.146;11.576;2023-04-03T04:51:14;1.60;;;1.50;;
15443;SDS011;7822;48.146;11.576;2023-04-03T04:53:42;1.70;;;1.60;;
15443;SDS011;7822;48.146;11.576;2023-04-03T04:56:10;1.77;;;1.67;;
15443;SDS011;7822;48.146;11.576;2023-04-03T04:58:38;1.60;;;1.50;;
15443;SDS011;7822;48.146;11.576;2023-04-03T05:01:07;1.70;;;1.60;;
15443;SDS011;7822;48.146;11.576;2023-04-03T05:03:36;1.63;;;1.53;;
15443;SDS011;7822;48.146;11.576;2023-04-03T05:06:04;1.47;;;1.37;;
15443;SDS011;7822;48.146;11.576;2023-04-03T05:08:32;1.63;;;1.53;;
15443;SDS011;7822;48.146;11.576;2023-04-03T05:11:00;1.60;;;1.50;;
15443;SDS011;7822;48.146;11.576;2023-04-03T05:13:27;1.70;;;1.60;;
15443;SDS011;7822;48.146;11.576;2023-04-03T05:15:55;1.50;;;1.40;;
15443;SDS011;7822;48.146;11.576;2023-04-03T05:18:24;1.70;;;1.60;;
15443;SDS011;7822;48.146;11.576;2023-04-03T05:20:51;1.70;;;1.60;;
15443;SDS011;7822;48.146;11.576;2023-04-03T05:23:19;1.40;;;1.30;;
15443;SDS011;7822;48.146;11.576;2023-04-03T05:25:47;1.70;;;1.60;;
15443;SDS011;7822;48.146;11.576;2023-04-03T05:28:15;1.70;;;1.60;;
15443;SDS011;7822;48.146;11.576;2023-04-03T05:30:42;1.97;;;1.77;;
15443;SDS011;7822;48.146;11.576;2023-04-03T05:33:10;1.47;;;1.40;;
15443;SDS011;7822;48.146;11.576;2023-04-03T05:35:39;1.53;;;1.43;;
15443;SDS011;7822;48.146;11.576;2023-04-03T05:38:07;1.40;;;1.30;;
15443;SDS011;7822;48.146;11.576;2023-04-03T05:40:35;1.80;;;1.50;;
15443;SDS011;7822;48.146;11.576;2023-04-03T05:43:03;1.40;;;1.30;;
15443;SDS011;7822;48.146;11.576;2023-04-03T05:45:31;1.50;;;1.40;;
15443;SDS011;7822;48.146;11.576;2023-04-03T05:47:59;1.80;;;1.70;;
15443;SDS011;7822;48.146;11.576;2023-04-03T05:50:27;1.60;;;1.50;;
15443;SDS011;7822;48.146;11.576;2023-04-03T05:52:57;1.60;;;1.40;;
15443;SDS011;7822;48.146;11.576;2023-04-03T05:55:26;1.70;;;1.60;;
15443;SDS011;7822;48.146;11.576;2023-04-03T05:57:53;1.70;;;1.60;;
15443;SDS011;7822;48.146;11.576;2023-04-03T06:00:21;1.87;;;1.77;;
15443;SDS011;7822;48.146;11.576;2023-04-03T06:02:49;1.57;;;1.47;;
15443;SDS011;7822;48.146;11.576;2023-04-03T06:05:17;1.63;;;1.50;;
15443;SDS011;7822;48.146;11.576;2023-04-03T06:07:45;1.80;;;1.70;;
15443;SDS011;7822;48.146;11.576;2023-04-03T06:10:13;1.70;;;1.60;;
15443;SDS011;7822;48.146;11.576;2023-04-03T06:12:41;1.47;;;1.37;;
15443;SDS011;7822;48.146;11.576;2023-04-03T06:15:09;1.40;;;1.30;;
15443;SDS011;7822;48.146;11.576;2023-04-03T06:17:37;1.47;;;1.37;;
15443;SDS011;7822;48.146;11.576;2023-04-03T06:20:05;1.60;;;1.50;;
15443;SDS011;7822;48.146;11.576;2023-04-03T06:22:34;1.53;;;1.43;;
15443;SDS011;7822;48.146;11.576;2023-04-03T06:25:02;1.60;;;1.50;;
15443;SDS011;7822;48.146;11.576;2023-04-03T06:27:32;1.57;;;1.47;;
15443;SDS011;7822;48.146;11.576;2023-04-03T06:29:59;1.47;;;1.37;;
15443;SDS011;7822;48.146;11.576;2023-04-03T06:32:27;1.40;;;1.30;;
15443;SDS011;7822;48.146;11.576;2023-04-03T06:34:55;1.47;;;1.37;;
15443;SDS011;7822;48.146;11.576;2023-04-03T06:37:23;1.40;;;1.30;;
15443;SDS011;7822;48.146;11.576;2023-04-03T06:39:54;1.60;;;1.50;;
15443;SDS011;7822;48.146;11.576;2023-04-03T06:42:22;1.40;;;1.30;;
15443;SDS011;7822;48.146;11.576;2023-04-03T06:44:51;1.40;;;1.30;;
15443;SDS011;7822;48.146;11.576;2023-04-03T06:47:19;2.00;;;1.60;;
15443;SDS011;7822;48.146;11.576;2023-04-03T06:49:46;2.70;;;1.90;;
15443;SDS011;7822;48.146;11.576;2023-04-03T06:52:14;2.10;;;1.60;;
15443;SDS011;7822;48.146;11.576;2023-04-03T06:54:42;2.03;;;1.60;;
15443;SDS011;7822;48.146;11.576;2023-04-03T06:57:09;1.57;;;1.47;;
15443;SDS011;7822;48.146;11.576;2023-04-03T06:59:37;1.53;;;1.43;;
15443;SDS011;7822;48.146;11.576;2023-04-03T07:02:06;1.43;;;1.33;;
15443;SDS011;7822;48.146;11.576;2023-04-03T07:04:34;3.73;;;1.53;;
15443;SDS011;7822;48.146;11.576;2023-04-03T07:07:02;1.90;;;1.80;;
15443;SDS011;7822;48.146;11.576;2023-04-03T07:09:30;1.70;;;1.60;;
15443;SDS011;7822;48.146;11.576;2023-04-03T07:11:57;1.70;;;1.60;;
15443;SDS011;7822;48.146;11.576;2023-04-03T07:14:25;2.00;;;1.73;;
15443;SDS011;7822;48.146;11.576;2023-04-03T07:16:53;1.70;;;1.60;;
15443;SDS011;7822;48.146;11.576;2023-04-03T07:19:22;1.77;;;1.67;;
15443;SDS011;7822;48.146;11.576;2023-04-03T07:21:50;1.70;;;1.60;;
15443;SDS011;7822;48.146;11.576;2023-04-03T07:24:18;1.53;;;1.43;;
15443;SDS011;7822;48.146;11.576;2023-04-03T07:26:48;1.83;;;1.73;;
15443;SDS011;7822;48.146;11.576;2023-04-03T07:29:17;2.40;;;1.67;;
15443;SDS011;7822;48.146;11.576;2023-04-03T07:31:46;2.17;;;1.57;;
15443;SDS011;7822;48.146;11.576;2023-04-03T07:34:15;2.27;;;1.93;;
15443;SDS011;7822;48.146;11.576;2023-04-03T07:36:47;2.30;;;2.10;;
15443;SDS011;7822;48.146;11.576;2023-04-03T07:39:15;2.10;;;1.90;;
15443;SDS011;7822;48.146;11.576;2023-04-03T07:41:47;1.90;;;1.80;;
15443;SDS011;7822;48.146;11.576;2023-04-03T07:44:15;1.83;;;1.73;;
15443;SDS011;7822;48.146;11.576;2023-04-03T07:46:45;1.93;;;1.70;;
15443;SDS011;7822;48.146;11.576;2023-04-03T07:49:13;1.90;;;1.80;;
15443;SDS011;7822;48.146;11.576;2023-04-03T07:51:43;1.53;;;1.43;;
15443;SDS011;7822;48.146;11.576;2023-04-03T07:54:13;2.17;;;1.97;;
15443;SDS011;7822;48.146;11.576;2023-04-03T07:56:42;2.00;;;1.73;;
15443;SDS011;7822;48.146;11.576;2023-04-03T07:59:10;2.27;;;2.03;;
15443;SDS011;7822;48.146;11.576;2023-04-03T08:01:39;1.63;;;1.53;;
15443;SDS011;7822;48.146;11.576;2023-04-03T08:04:08;2.00;;;1.90;;
15443;SDS011;7822;48.146;11.576;2023-04-03T08:06:37;1.70;;;1.60;;
15443;SDS011;7822;48.146;11.576;2023-04-03T08:09:14;2.20;;;2.00;;
15443;SDS011;7822;48.146;11.576;2023-04-03T08:11:43;1.70;;;1.60;;
15443;SDS011;7822;48.146;11.576;2023-04-03T08:14:12;2.00;;;1.80;;
15443;SDS011;7822;48.146;11.576;2023-04-03T08:16:45;2.20;;;2.00;;
15443;SDS011;7822;48.146;11.576;2023-04-03T08:19:13;1.90;;;1.77;;
15443;SDS011;7822;48.146;11.576;2023-04-03T08:21:51;2.10;;;1.90;;
15443;SDS011;7822;48.146;11.576;2023-04-03T08:24:21;1.93;;;1.77;;
15443;SDS011;7822;48.146;11.576;2023-04-03T08:26:49;2.13;;;1.93;;
15443;SDS011;7822;48.146;11.576;2023-04-03T08:29:17;1.90;;;1.80;;
15443;SDS011;7822;48.146;11.576;2023-04-03T08:31:45;1.77;;;1.67;;
15443;SDS011;7822;48.146;11.576;2023-04-03T08:34:13;2.23;;;2.03;;
15443;SDS011;7822;48.146;11.576;2023-04-03T08:36:41;2.00;;;1.90;;
15443;SDS011;7822;48.146;11.576;2023-04-03T08:39:10;1.83;;;1.67;;
15443;SDS011;7822;48.146;11.576;2023-04-03T08:41:40;1.90;;;1.80;;
15443;SDS011;7822;48.146;11.576;2023-04-03T08:44:14;2.13;;;2.03;;
15443;SDS011;7822;48.146;11.576;2023-04-03T08:46:47;1.97;;;1.87;;
15443;SDS011;7822;48.146;11.576;2023-04-03T08:49:26;2.07;;;1.97;;
15443;SDS011;7822;48.146;11.576;2023-04-03T08:51:57;2.53;;;2.20;;
15443;SDS011;7822;48.146;11.576;2023-04-03T08:54:28;2.30;;;2.10;;
15443;SDS011;7822;48.146;11.576;2023-04-03T08:57:03;2.70;;;2.30;;
15443;SDS011;7822;48.146;11.576;2023-04-03T08:59:33;1.63;;;1.53;;
15443;SDS011;7822;48.146;11.576;2023-04-03T09:02:05;2.40;;;2.20;;
15443;SDS011;7822;48.146;11.576;2023-04-03T09:04:49;2.40;;;2.20;;
15443;SDS011;7822;48.146;11.576;2023-04-03T09:07:19;2.47;;;2.27;;
15443;SDS011;7822;48.146;11.576;2023-04-03T09:09:52;2.20;;;2.00;;
15443;SDS011;7822;48.146;11.576;2023-04-03T09:12:22;2.40;;;2.20;;
15443;SDS011;7822;48.146;11.576;2023-04-03T09:14:56;1.93;;;1.83;;
15443;SDS011;7822;48.146;11.576;2023-04-03T09:17:33;2.37;;;2.17;;
15443;SDS011;7822;48.146;11.576;2023-04-03T09:20:12;2.33;;;2.13;;
15443;SDS011;7822;48.146;11.576;2023-04-03T09:22:47;2.17;;;1.87;;
15443;SDS011;7822;48.146;11.576;2023-04-03T09:25:19;2.00;;;1.90;;
15443;SDS011;7822;48.146;11.576;2023-04-03T09:27:51;2.30;;;2.00;;
15443;SDS011;7822;48.146;11.576;2023-04-03T09:30:19;2.53;;;2.07;;
15443;SDS011;7822;48.146;11.576;2023-04-03T09:32:49;3.07;;;2.20;;
15443;SDS011;7822;48.146;11.576;2023-04-03T09:35:20;2.37;;;2.27;;
15443;SDS011;7822;48.146;11.576;2023-04-03T09:38:14;2.30;;;2.10;;
15443;SDS011;7822;48.146;11.576;2023-04-03T09:40:45;2.90;;;2.30;;
15443;SDS011;7822;48.146;11.576;2023-04-03T09:43:21;2.17;;;1.97;;
15443;SDS011;7822;48.146;11.576;2023-04-03T09:45:50;2.33;;;2.13;;
15443;SDS011;7822;48.146;11.576;2023-04-03T09:48:19;2.90;;;2.37;;
15443;SDS011;7822;48.146;11.576;2023-04-03T09:50:54;2.40;;;2.20;;
15443;SDS011;7822;48.146;11.576;2023-04-03T09:53:33;3.03;;;2.10;;
15443;SDS011;7822;48.146;11.576;2023-04-03T09:56:03;2.23;;;2.03;;
15443;SDS011;7822;48.146;11.576;2023-04-03T09:58:36;2.27;;;1.90;;
15443;SDS011;7822;48.146;11.576;2023-04-03T10:01:27;2.20;;;2.00;;
15443;SDS011;7822;48.146;11.576;2023-04-03T10:04:06;3.57;;;2.17;;
15443;SDS011;7822;48.146;11.576;2023-04-03T10:06:37;2.07;;;1.90;;
15443;SDS011;7822;48.146;11.576;2023-04-03T10:09:19;2.30;;;2.10;;
15443;SDS011;7822;48.146;11.576;2023-04-03T10:11:59;2.30;;;2.10;;
15443;SDS011;7822;48.146;11.576;2023-04-03T10:14:32;2.50;;;2.30;;
15443;SDS011;7822;48.146;11.576;2023-04-03T10:17:02;2.40;;;2.20;;
15443;SDS011;7822;48.146;11.576;2023-04-03T10:19:42;2.23;;;2.00;;
15443;SDS011;7822;48.146;11.576;2023-04-03T10:22:15;2.43;;;2.23;;
15443;SDS011;7822;48.146;11.576;2023-04-03T10:24:52;3.73;;;2.30;;
15443;SDS011;7822;48.146;11.576;2023-04-03T10:27:29;2.70;;;1.97;;
15443;SDS011;7822;48.146;11.576;2023-04-03T10:30:12;2.07;;;1.97;;
15443;SDS011;7822;48.146;11.576;2023-04-03T10:32:55;2.53;;;2.33;;
15443;SDS011;7822;48.146;11.576;2023-04-03T10:35:31;2.50;;;2.30;;
15443;SDS011;7822;48.146;11.576;2023-04-03T10:38:08;2.20;;;2.00;;
15443;SDS011;7822;48.146;11.576;2023-04-03T10:40:45;2.43;;;2.23;;
15443;SDS011;7822;48.146;11.576;2023-04-03T10:43:21;2.20;;;2.00;;
15443;SDS011;7822;48.146;11.576;2023-04-03T10:46:01;2.03;;;1.83;;
15443;SDS011;7822;48.146;11.576;2023-04-03T10:48:40;2.20;;;2.00;;
15443;SDS011;7822;48.146;11.576;2023-04-03T10:51:23;2.03;;;1.87;;
15443;SDS011;7822;48.146;11.576;2023-04-03T10:53:56;2.40;;;2.20;;
15443;SDS011;7822;48.146;11.576;2023-04-03T10:56:30;2.27;;;1.90;;
15443;SDS011;7822;48.146;11.576;2023-04-03T10:59:02;2.73;;;2.30;;
15443;SDS011;7822;48.146;11.576;2023-04-03T11:01:42;2.00;;;1.90;;
15443;SDS011;7822;48.146;11.576;2023-04-03T11:04:12;2.50;;;2.30;;
15443;SDS011;7822;48.146;11.576;2023-04-03T11:06:43;2.40;;;2.20;;
15443;SDS011;7822;48.146;11.576;2023-04-03T11:09:17;2.47;;;2.00;;
15443;SDS011;7822;48.146;11.576;2023-04-03T11:11:49;2.23;;;2.03;;
15443;SDS011;7822;48.146;11.576;2023-04-03T11:14:22;2.13;;;1.93;;
15443;SDS011;7822;48.146;11.576;2023-04-03T11:16:59;2.43;;;1.97;;
15443;SDS011;7822;48.146;11.576;2023-04-03T11:19:34;2.33;;;2.13;;
15443;SDS011;7822;48.146;11.576;2023-04-03T11:22:08;2.50;;;2.30;;
15443;SDS011;7822;48.146;11.576;2023-04-03T11:24:41;2.33;;;2.03;;
15443;SDS011;7822;48.146;11.576;2023-04-03T11:27:15;2.53;;;2.33;;
15443;SDS011;7822;48.146;11.576;2023-04-03T11:29:49;2.37;;;2.17;;
15443;SDS011;7822;48.146;11.576;2023-04-03T11:32:29;2.33;;;2.13;;
15443;SDS011;7822;48.146;11.576;2023-04-03T11:35:11;2.97;;;2.03;;
15443;SDS011;7822;48.146;11.576;2023-04-03T11:37:41;2.57;;;2.20;;
15443;SDS011;7822;48.146;11.576;2023-04-03T11:40:19;2.50;;;2.00;;
15443;SDS011;7822;48.146;11.576;2023-04-03T11:42:51;2.80;;;2.30;;
15443;SDS011;7822;48.146;11.576;2023-04-03T11:45:32;2.47;;;2.30;;
15443;SDS011;7822;48.146;11.576;2023-04-03T11:48:05;2.07;;;1.90;;
15443;SDS011;7822;48.146;11.576;2023-04-03T11:50:55;2.90;;;2.20;;
15443;SDS011;7822;48.146;11.576;2023-04-03T11:53:28;1.93;;;1.83;;
15443;SDS011;7822;48.146;11.576;2023-04-03T11:56:06;2.50;;;2.30;;
15443;SDS011;7822;48.146;11.576;2023-04-03T11:59:15;2.50;;;2.23;;
15443;SDS011;7822;48.146;11.576;2023-04-03T12:01:49;2.53;;;2.33;;
15443;SDS011;7822;48.146;11.576;2023-04-03T12:04:18;2.20;;;2.00;;
15443;SDS011;7822;48.146;11.576;2023-04-03T12:09:54;3.47;;;2.50;;
15443;SDS011;7822;48.146;11.576;2023-04-03T12:12:32;2.43;;;2.17;;
15443;SDS011;7822;48.146;11.576;2023-04-03T12:15:12;2.70;;;2.50;;
15443;SDS011;7822;48.146;11.576;2023-04-03T12:17:46;2.03;;;1.83;;
15443;SDS011;7822;48.146;11.576;2023-04-03T12:23:27;2.33;;;2.17;;
15443;SDS011;7822;48.146;11.576;2023-04-03T12:26:00;2.30;;;2.10;;
15443;SDS011;7822;48.146;11.576;2023-04-03T12:28:35;2.07;;;1.87;;
15443;SDS011;7822;48.146;11.576;2023-04-03T12:31:05;2.00;;;1.90;;
15443;SDS011;7822;48.146;11.576;2023-04-03T12:33:38;2.00;;;1.90;;
15443;SDS011;7822;48.146;11.576;2023-04-03T12:36:23;2.70;;;2.20;;
15443;SDS011;7822;48.146;11.576;2023-04-03T12:39:07;2.20;;;2.00;;
15443;SDS011;7822;48.146;11.576;2023-04-03T12:41:44;2.20;;;2.00;;
15443;SDS011;7822;48.146;11.576;2023-04-03T12:44:26;2.07;;;1.90;;
15443;SDS011;7822;48.146;11.576;2023-04-03T12:47:09;2.53;;;2.33;;
15443;SDS011;7822;48.146;11.576;2023-04-03T12:49:50;2.30;;;2.10;;
15443;SDS011;7822;48.146;11.576;2023-04-03T12:52:21;2.27;;;1.90;;
15443;SDS011;7822;48.146;11.576;2023-04-03T12:54:59;2.30;;;2.10;;
15443;SDS011;7822;48.146;11.576;2023-04-03T12:57:30;1.83;;;1.73;;
15443;SDS011;7822;48.146;11.576;2023-04-03T12:59:59;2.07;;;1.93;;
15443;SDS011;7822;48.146;11.576;2023-04-03T13:02:28;2.50;;;2.30;;
15443;SDS011;7822;48.146;11.576;2023-04-03T13:04:58;2.30;;;2.00;;
15443;SDS011;7822;48.146;11.576;2023-04-03T13:07:28;1.87;;;1.77;;
15443;SDS011;7822;48.146;11.576;2023-04-03T13:10:02;2.40;;;2.20;;
15443;SDS011;7822;48.146;11.576;2023-04-03T13:12:45;1.87;;;1.77;;
15443;SDS011;7822;48.146;11.576;2023-04-03T13:15:15;1.73;;;1.63;;
15443;SDS011;7822;48.146;11.576;2023-04-03T13:17:46;2.20;;;2.07;;
15443;SDS011;7822;48.146;11.576;2023-04-03T13:20:18;2.40;;;2.20;;
15443;SDS011;7822;48.146;11.576;2023-04-03T13:22:49;2.47;;;2.10;;
15443;SDS011;7822;48.146;11.576;2023-04-03T13:25:22;2.60;;;2.20;;
15443;SDS011;7822;48.146;11.576;2023-04-03T13:27:53;2.37;;;2.17;;
15443;SDS011;7822;48.146;11.576;2023-04-03T13:30:38;2.30;;;2.10;;
15443;SDS011;7822;48.146;11.576;2023-04-03T13:33:18;2.10;;;1.90;;
15443;SDS011;7822;48.146;11.576;2023-04-03T13:35:48;2.10;;;2.00;;
15443;SDS011;7822;48.146;11.576;2023-04-03T13:38:23;2.70;;;2.20;;
15443;SDS011;7822;48.146;11.576;2023-04-03T13:40:59;2.50;;;2.17;;
15443;SDS011;7822;48.146;11.576;2023-04-03T13:43:29;1.80;;;1.70;;
15443;SDS011;7822;48.146;11.576;2023-04-03T13:46:00;1.90;;;1.80;;
15443;SDS011;7822;48.146;11.576;2023-04-03T13:48:35;2.13;;;1.93;;
15443;SDS011;7822;48.146;11.576;2023-04-03T13:51:05;2.50;;;2.07;;
15443;SDS011;7822;48.146;11.576;2023-04-03T13:53:44;2.43;;;2.23;;
15443;SDS011;7822;48.146;11.576;2023-04-03T13:56:18;3.03;;;2.13;;
15443;SDS011;7822;48.146;11.576;2023-04-03T13:58:54;2.20;;;2.00;;
15443;SDS011;7822;48.146;11.576;2023-04-03T14:01:24;1.70;;;1.60;;
15443;SDS011;7822;48.146;11.576;2023-04-03T14:03:54;2.17;;;2.00;;
15443;SDS011;7822;48.146;11.576;2023-04-03T14:06:24;2.20;;;2.10;;
15443;SDS011;7822;48.146;11.576;2023-04-03T14:08:52;1.90;;;1.80;;
15443;SDS011;7822;48.146;11.576;2023-04-03T14:11:22;2.37;;;2.00;;
15443;SDS011;7822;48.146;11.576;2023-04-03T14:13:53;1.60;;;1.50;;
15443;SDS011;7822;48.146;11.576;2023-04-03T14:16:23;2.20;;;2.00;;
15443;SDS011;7822;48.146;11.576;2023-04-03T14:18:54;2.33;;;2.13;;
15443;SDS011;7822;48.146;11.576;2023-04-03T14:21:21;2.20;;;1.93;;
15443;SDS011;7822;48.146;11.576;2023-04-03T14:23:49;2.03;;;1.93;;
15443;SDS011;7822;48.146;11.576;2023-04-03T14:26:18;2.37;;;2.00;;
15443;SDS011;7822;48.146;11.576;2023-04-03T14:28:49;2.40;;;2.20;;
15443;SDS011;7822;48.146;11.576;2023-04-03T14:31:18;2.10;;;2.00;;
15443;SDS011;7822;48.146;11.576;2023-04-03T14:33:48;2.17;;;1.97;;
15443;SDS011;7822;48.146;11.576;2023-04-03T14:36:16;2.57;;;2.10;;
15443;SDS011;7822;48.146;11.576;2023-04-03T14:38:46;1.97;;;1.77;;
15443;SDS011;7822;48.146;11.576;2023-04-03T14:41:17;1.80;;;1.70;;
15443;SDS011;7822;48.146;11.576;2023-04-03T14:43:46;2.10;;;1.90;;
15443;SDS011;7822;48.146;11.576;2023-04-03T14:46:17;2.17;;;1.73;;
15443;SDS011;7822;48.146;11.576;2023-04-03T14:48:52;2.07;;;1.90;;
15443;SDS011;7822;48.146;11.576;2023-04-03T14:51:20;2.10;;;2.00;;
15443;SDS011;7822;48.146;11.576;2023-04-03T14:53:48;1.83;;;1.73;;
15443;SDS011;7822;48.146;11.576;2023-04-03T14:56:17;2.17;;;1.97;;
15443;SDS011;7822;48.146;11.576;2023-04-03T14:58:49;1.67;;;1.57;;
15443;SDS011;7822;48.146;11.576;2023-04-03T15:01:21;1.87;;;1.77;;
15443;SDS011;7822;48.146;11.576;2023-04-03T15:03:49;1.63;;;1.53;;
15443;SDS011;7822;48.146;11.576;2023-04-03T15:06:16;1.90;;;1.80;;
15443;SDS011;7822;48.146;11.576;2023-04-03T15:08:45;2.10;;;2.00;;
15443;SDS011;7822;48.146;11.576;2023-04-03T15:11:14;2.60;;;2.03;;
15443;SDS011;7822;48.146;11.576;2023-04-03T15:13:42;1.77;;;1.67;;
15443;SDS011;7822;48.146;11.576;2023-04-03T15:16:14;2.13;;;1.83;;